Latest Weather Observations for Swan Hill

IDN60801

Issued at 8:32 pm EST Monday 3 August 2015 (issued every 30 minutes, with the page automatically refreshed every 10 minutes)

About weather observations | Map of weather stations | Latest weather observations for NSW | Other Formats
Station Details ID: 077094 Name: SWAN HILL AERODROME Lat: -35.38 Lon: 143.54 Height: 71.0 m
Data from the previous 72 hours. | See also: Recent months at Swan Hill
Date/Time
EST
Temp
°C
App
Temp
°C
Dew
Point
Rel
Hum
%
Delta-T
°C
Wind Press
QNH
hPa
Press
MSL
hPa
Rain
since 9 am
mm
Dir
 
Spd
km/h
Gust
km/h
Spd
kts
Gust
kts
03/08:30pm 6.6 3.5 3.8 82 1.2 SSW 9 11 5 6 1024.6 1024.7 0.0
03/08:00pm 7.1 4.6 3.7 79 1.4 SSW 6 7 3 4 1024.5 1024.6 0.0
03/07:30pm 7.2 4.1 3.4 77 1.6 SSW 9 13 5 7 1024.4 1024.5 0.0
03/07:00pm 8.7 5.1 2.7 66 2.5 S 11 13 6 7 1024.0 1024.1 0.0
03/06:30pm 8.8 5.5 2.6 65 2.6 S 9 13 5 7 1023.8 1023.9 0.0
03/06:00pm 8.9 5.3 2.7 65 2.6 S 11 19 6 10 1023.6 1023.7 0.0
03/05:30pm 9.7 5.7 2.8 62 3.0 SW 13 17 7 9 1023.0 1023.1 0.0
03/05:00pm 10.6 5.7 2.2 56 3.6 SW 17 26 9 14 1022.9 1023.0 0.0
03/04:30pm 11.0 5.9 2.8 57 3.6 SW 19 28 10 15 1022.6 1022.7 0.0
03/04:00pm 10.6 5.5 3.2 60 3.2 SSW 19 24 10 13 1022.4 1022.5 0.0
03/03:30pm 11.0 6.3 3.1 58 3.5 SSW 17 24 9 13 1022.1 1022.2 0.0
03/03:00pm 11.6 5.1 2.6 54 3.9 SW 26 37 14 20 1021.8 1021.9 0.0
03/02:37pm 11.0 4.1 2.3 55 3.7 SW 28 46 15 25 1021.8 1021.9 0.0
03/02:30pm 11.1 3.8 2.7 56 3.6 SW 30 46 16 25 1021.6 1021.7 0.0
03/02:25pm 12.8 6.1 3.5 53 4.2 WSW 28 46 15 25 1021.6 1021.7 0.0
03/02:00pm 11.7 4.7 2.2 52 4.1 SW 28 41 15 22 1021.6 1021.7 0.0
03/01:30pm 11.9 5.0 2.6 53 4.1 SW 28 41 15 22 1021.7 1021.8 0.0
03/01:00pm 12.0 5.2 3.3 55 3.8 SW 28 39 15 21 1021.8 1021.9 0.0
03/12:30pm 11.9 5.2 3.7 57 3.7 SW 28 41 15 22 1022.0 1022.1 0.0
03/12:00pm 11.3 5.0 3.6 59 3.4 SW 26 41 14 22 1022.0 1022.1 0.0
03/11:47am 11.6 4.2 3.9 59 3.4 SW 32 50 17 27 1021.9 1022.0 0.0
03/11:30am 11.4 4.0 4.2 61 3.2 SW 32 41 17 22 1021.9 1022.0 0.0
03/11:11am 11.3 4.4 4.7 64 3.0 SW 30 48 16 26 1021.9 1022.0 0.0
03/11:00am 11.1 4.7 5.0 66 2.8 SW 28 43 15 23 1022.0 1022.1 0.0
03/10:30am 10.2 4.4 6.4 77 1.8 WSW 26 35 14 19 1021.8 1021.9 0.0
03/10:21am 10.2 3.5 5.8 74 2.0 SW 30 46 16 25 1021.7 1021.8 0.0
03/10:10am 10.9 4.5 6.8 76 1.9 WSW 30 39 16 21 1021.4 1021.5 0.0
03/10:00am 10.5 4.5 7.2 80 1.6 WSW 28 35 15 19 1021.5 1021.6 0.0
03/09:30am 9.6 4.0 7.2 85 1.1 W 26 35 14 19 1021.1 1021.2 0.0
03/09:12am 9.2 3.9 6.8 85 1.1 W 24 32 13 17 1021.0 1021.1 0.0
03/09:00am 9.2 3.9 6.8 85 1.1 W 24 32 13 17 1020.8 1020.9 0.2
03/08:30am 8.7 3.4 6.7 87 0.9 W 24 33 13 18 1020.5 1020.6 0.2
03/08:00am 8.1 2.7 6.4 89 0.8 W 24 32 13 17 1020.1 1020.2 0.2
03/07:30am 7.9 2.5 6.2 89 0.8 WNW 24 32 13 17 1019.7 1019.8 0.2
03/07:00am 7.2 2.4 5.7 90 0.7 WNW 20 28 11 15 1019.3 1019.4 0.2
03/06:30am 7.2 2.4 5.7 90 0.7 WNW 20 26 11 14 1019.1 1019.2 0.2
03/06:00am 7.6 2.5 5.9 89 0.8 WNW 22 30 12 16 1018.8 1018.8 0.2
03/05:30am 7.7 2.2 5.7 87 0.9 WNW 24 32 13 17 1018.6 1018.6 0.2
03/05:00am 8.4 2.3 6.4 87 0.9 WNW 28 37 15 20 1018.5 1018.5 0.2
03/04:30am 8.4 2.2 6.2 86 1.0 WNW 28 33 15 18 1018.4 1018.4 0.2
03/04:00am 8.5 3.0 6.1 85 1.1 WNW 24 30 13 16 1018.4 1018.4 0.2
03/03:30am 8.3 3.2 6.1 86 1.0 WNW 22 28 12 15 1018.3 1018.3 0.2
03/03:00am 8.4 3.0 6.2 86 1.0 WNW 24 30 13 16 1018.4 1018.4 0.2
03/02:30am 8.3 2.9 6.3 87 0.9 NW 24 30 13 16 1018.4 1018.4 0.2
03/02:00am 8.5 3.5 6.6 88 0.9 WNW 22 28 12 15 1018.5 1018.5 0.2
03/01:30am 8.9 3.6 6.7 86 1.0 WNW 24 32 13 17 1018.5 1018.5 0.2
03/01:00am 8.9 2.7 6.3 84 1.2 W 28 35 15 19 1018.5 1018.5 0.2
03/12:30am 8.8 3.4 6.2 84 1.2 WNW 24 33 13 18 1018.6 1018.6 0.2
03/12:00am 8.0 3.3 6.0 87 0.9 WNW 20 26 11 14 1018.5 1018.5 0.2
 
Date/Time
EST
Temp
°C
App
Temp
°C
Dew
Point
Rel
Hum
%
Delta-T
°C
Wind Press
QNH
hPa
Press
MSL
hPa
Rain
since 9 am
mm
Dir
 
Spd
km/h
Gust
km/h
Spd
kts
Gust
kts
02/11:30pm 8.1 3.4 6.1 87 0.9 WNW 20 26 11 14 1018.5 1018.5 0.2
02/11:00pm 7.9 3.5 6.4 90 0.7 NW 19 22 10 12 1018.5 1018.5 0.2
02/10:30pm 8.4 4.0 6.7 89 0.8 WNW 19 24 10 13 1018.7 1018.7 0.2
02/10:00pm 8.9 4.1 7.2 89 0.8 WNW 22 30 12 16 1018.7 1018.7 0.2
02/09:30pm 9.5 5.3 7.6 88 0.9 W 19 24 10 13 1018.9 1019.0 0.2
02/09:00pm 9.9 5.7 7.3 84 1.2 W 19 24 10 13 1018.6 1018.6 0.0
02/08:30pm 10.9 3.8 6.3 73 2.2 W 33 44 18 24 1018.3 1018.3 0.0
02/08:23pm 11.0 3.5 6.4 73 2.2 W 35 46 19 25 1018.2 1018.2 0.0
02/08:00pm 10.7 4.9 6.1 73 2.1 WNW 26 35 14 19 1017.8 1017.9 0.0
02/07:30pm 10.4 4.9 6.0 74 2.0 NW 24 30 13 16 1017.3 1017.4 0.0
02/07:00pm 10.0 5.3 6.0 76 1.8 NW 20 26 11 14 1017.2 1017.3 0.0
02/06:30pm 10.6 5.5 5.8 72 2.2 WNW 22 30 12 16 1016.9 1017.0 0.0
02/06:00pm 11.2 5.7 5.7 69 2.6 WNW 24 30 13 16 1016.6 1016.7 0.0
02/05:30pm 11.9 6.4 5.8 66 2.9 WNW 24 30 13 16 1016.5 1016.6 0.0
02/05:00pm 12.4 6.0 5.3 62 3.3 WNW 28 39 15 21 1016.0 1016.1 0.0
02/04:30pm 13.0 6.2 5.2 59 3.6 WNW 30 41 16 22 1015.8 1015.9 0.0
02/04:00pm 13.9 6.5 5.0 55 4.2 W 33 43 18 23 1015.9 1016.0 0.0
02/03:30pm 13.4 6.7 5.6 59 3.7 W 30 39 16 21 1016.0 1016.1 0.0
02/03:00pm 12.6 5.3 5.3 61 3.4 W 33 43 18 23 1015.9 1016.0 0.0
02/02:30pm 12.6 4.5 5.3 61 3.4 W 37 46 20 25 1015.8 1015.9 0.0
02/02:00pm 13.0 5.9 5.4 60 3.6 W 32 41 17 22 1015.7 1015.8 0.0
02/01:30pm 12.7 5.6 5.4 61 3.4 W 32 43 17 23 1015.8 1015.9 0.0
02/01:00pm 12.4 5.1 5.6 63 3.2 W 33 43 18 23 1016.0 1016.1 0.0
02/12:30pm 11.9 4.7 4.9 62 3.2 WSW 32 39 17 21 1016.4 1016.5 0.0
02/12:00pm 11.4 4.7 5.7 68 2.6 W 30 39 16 21 1016.8 1016.9 0.0
02/11:30am 11.1 4.4 5.8 70 2.5 WSW 30 37 16 20 1017.0 1017.1 0.0
02/11:00am 10.1 3.2 6.4 78 1.7 WSW 32 39 17 21 1017.3 1017.4 0.0
02/10:30am 9.6 3.7 6.0 78 1.7 W 26 35 14 19 1017.2 1017.3 0.0
02/10:00am 8.6 3.8 5.5 81 1.4 W 20 28 11 15 1016.9 1017.0 0.0
02/09:30am 7.2 2.4 4.5 83 1.2 W 19 22 10 12 1016.8 1016.9 0.0
02/09:00am 6.6 2.5 4.3 85 1.0 WSW 15 19 8 10 1016.8 1016.9 8.8
02/08:30am 6.4 3.1 4.7 89 0.7 WSW 11 17 6 9 1017.1 1017.2 8.8
02/08:00am 6.2 2.9 4.7 90 0.7 WSW 11 15 6 8 1016.9 1017.0 8.8
02/07:30am 6.0 3.5 4.5 90 0.6 SW 7 9 4 5 1016.4 1016.5 8.8
02/07:00am 5.9 2.9 4.2 89 0.7 SSW 9 15 5 8 1015.9 1016.0 8.8
02/06:30am 6.0 3.0 4.3 89 0.7 SSW 9 15 5 8 1015.6 1015.7 8.8
02/06:00am 6.0 2.7 4.3 89 0.7 SSW 11 15 6 8 1015.7 1015.8 8.8
02/05:30am 6.1 1.6 4.4 89 0.7 SSW 17 22 9 12 1015.9 1016.0 8.6
02/05:00am 6.2 1.8 4.5 89 0.7 SSW 17 24 9 13 1015.8 1015.9 8.4
02/04:30am 6.3 1.3 4.5 88 0.8 SSW 20 28 11 15 1015.7 1015.8 8.4
02/04:00am 6.9 2.0 4.2 83 1.2 SSW 19 33 10 18 1015.5 1015.6 8.0
02/03:30am 7.3 3.3 4.8 84 1.1 SW 15 20 8 11 1015.2 1015.3 8.0
02/03:00am 7.4 3.8 5.2 86 1.0 SW 13 17 7 9 1015.3 1015.4 8.0
02/02:30am 7.4 4.6 5.0 85 1.1 SSW 9 15 5 8 1015.4 1015.5 8.0
02/02:00am 7.3 4.4 4.9 85 1.1 SSW 9 13 5 7 1015.7 1015.8 8.0
02/01:30am 7.4 4.7 5.7 89 0.8 SSW 9 13 5 7 1015.8 1015.9 8.0
02/01:00am 7.5 5.3 6.4 93 0.5 S 7 9 4 5 1015.7 1015.8 8.0
02/12:30am 7.6 5.7 6.5 93 0.5 SSW 6 7 3 4 1015.8 1015.9 8.0
02/12:00am 7.7 5.6 6.5 92 0.6 SSW 7 11 4 6 1016.2 1016.3 8.0
 
Date/Time
EST
Temp
°C
App
Temp
°C
Dew
Point
Rel
Hum
%
Delta-T
°C
Wind Press
QNH
hPa
Press
MSL
hPa
Rain
since 9 am
mm
Dir
 
Spd
km/h
Gust
km/h
Spd
kts
Gust
kts
01/11:30pm 8.1 6.2 6.6 90 0.7 S 6 7 3 4 1016.1 1016.2 8.0
01/11:03pm 8.5 6.1 6.8 89 0.8 SSW 9 15 5 8 1016.4 1016.5 8.0
01/11:00pm 8.6 6.2 7.1 90 0.7 SSW 9 15 5 8 1016.5 1016.6 8.0
01/10:30pm 8.9 7.1 7.8 93 0.5 SSW 7 9 4 5 1016.6 1016.7 8.0
01/10:18pm 9.0 7.4 7.9 93 0.5 SW 6 7 3 4 1016.7 1016.8 8.0
01/10:03pm 9.0 8.5 7.8 92 0.6 CALM 0 0 0 0 1016.8 1016.9 8.0
01/10:00pm 9.0 8.5 7.8 92 0.6 CALM 0 0 0 0 1016.8 1016.9 8.0
01/09:30pm 9.1 8.2 7.9 92 0.6 SW 2 7 1 4 1016.6 1016.7 8.0
01/09:00pm 9.2 8.7 8.0 92 0.6 CALM 0 0 0 0 1016.8 1016.9 8.0
01/08:30pm 9.1 8.6 7.9 92 0.6 CALM 0 0 0 0 1016.9 1017.0 8.0
01/08:00pm 9.3 7.7 8.2 93 0.5 SSW 6 9 3 5 1017.2 1017.3 8.0
01/07:30pm 9.4 9.0 8.3 93 0.5 CALM 0 0 0 0 1016.9 1017.0 8.0
01/07:00pm 9.5 9.1 8.4 93 0.5 CALM 0 0 0 0 1017.3 1017.4 7.6
01/06:59pm 9.5 9.1 8.4 93 0.5 CALM 0 0 0 0 1017.3 1017.4 7.6
01/06:31pm 9.6 9.2 8.4 92 0.6 CALM 0 0 0 0 1017.0 1017.1 7.2
01/06:30pm 9.6 9.2 8.4 92 0.6 CALM 0 0 0 0 1017.0 1017.1 7.2
01/06:00pm 9.7 8.6 8.5 92 0.6 S 4 7 2 4 1015.7 1015.8 6.6
01/05:30pm 9.9 8.2 8.5 91 0.7 SSW 7 11 4 6 1016.8 1016.9 6.4
01/05:12pm 10.2 8.2 8.8 91 0.7 SW 9 13 5 7 1017.1 1017.2 6.0
01/05:00pm 10.1 8.1 8.5 90 0.8 SW 9 11 5 6 1016.7 1016.8 6.0
01/04:30pm 10.0 8.1 7.6 85 1.2 SSW 7 11 4 6 1015.3 1015.4 5.2
01/04:00pm 10.2 8.2 8.5 89 0.8 S 9 13 5 7 1015.2 1015.3 5.2
01/03:30pm 10.4 7.2 8.5 88 0.9 SW 15 19 8 10 1016.2 1016.3 5.2
01/03:00pm 10.6 7.8 8.4 86 1.1 S 13 19 7 10 1014.6 1014.7 4.4
01/02:30pm 10.6 7.5 8.9 89 0.8 SW 15 20 8 11 1014.9 1015.0 4.4
01/02:00pm 10.5 7.5 9.1 91 0.7 SW 15 19 8 10 1015.4 1015.5 4.2
01/01:41pm 10.2 6.7 8.8 91 0.7 SW 17 20 9 11 1015.1 1015.2 4.0
01/01:30pm 10.4 6.9 8.8 90 0.8 SW 17 24 9 13 1015.2 1015.3 3.8
01/01:29pm 10.4 6.9 8.8 90 0.8 SW 17 24 9 13 1015.3 1015.4 3.8
01/01:00pm 10.5 6.5 8.4 87 1.0 SW 19 28 10 15 1014.9 1015.0 3.0
01/12:48pm 10.9 7.5 9.0 88 0.9 SW 17 22 9 12 1014.7 1014.8 3.0
01/12:30pm 10.9 7.8 8.8 87 1.0 SW 15 26 8 14 1014.7 1014.8 2.8
01/12:00pm 11.8 8.3 10.2 90 0.8 SW 19 30 10 16 1014.6 1014.7 2.0
01/11:30am 12.6 9.2 11.2 91 0.7 W 20 26 11 14 1014.4 1014.5 1.6
01/11:00am 12.5 8.2 10.7 89 0.9 W 24 35 13 19 1014.7 1014.8 0.8
01/10:53am 12.4 8.1 10.6 89 0.9 W 24 35 13 19 1014.6 1014.7 0.6
01/10:30am 12.5 8.8 10.0 85 1.3 WNW 20 30 11 16 1014.6 1014.7 0.4
01/10:00am 12.5 7.8 9.3 81 1.6 WNW 24 33 13 18 1014.2 1014.3 0.2
01/09:30am 12.4 7.6 8.9 79 1.8 NW 24 28 13 15 1014.2 1014.3 0.2
01/09:00am 12.7 8.2 8.6 76 2.0 NW 22 28 12 15 1013.9 1014.0 0.2
01/08:30am 13.0 7.9 9.3 78 1.9 NW 26 33 14 18 1013.8 1013.9 0.2
01/08:00am 12.9 7.6 9.9 82 1.5 NW 28 35 15 19 1013.4 1013.5 0.2
01/07:34am 13.3 7.2 9.9 80 1.8 NW 32 50 17 27 1013.2 1013.3 0.2
01/07:30am 13.5 7.9 10.1 80 1.8 NW 30 37 16 20 1013.2 1013.3 0.2
01/07:00am 14.2 7.9 9.0 71 2.6 NNW 32 43 17 23 1012.6 1012.7 0.2
01/06:30am 14.1 9.3 8.7 70 2.7 NNW 24 32 13 17 1012.5 1012.6 0.2
01/06:00am 14.6 8.9 8.5 67 3.1 NW 28 35 15 19 1012.2 1012.3 0.2
01/05:46am 14.8 9.1 8.3 65 3.3 NW 28 48 15 26 1012.0 1012.1 0.2
01/05:30am 14.6 7.6 8.5 67 3.1 NW 35 44 19 24 1012.3 1012.4 0.2
01/05:00am 14.7 8.2 9.1 69 2.9 NW 33 48 18 26 1012.2 1012.3 0.2
01/04:32am 14.3 6.4 9.5 73 2.5 NW 41 59 22 32 1012.0 1012.1 0.2
01/04:30am 14.3 6.5 9.7 74 2.4 NW 41 57 22 31 1012.4 1012.5 0.2
01/04:29am 14.3 6.9 9.7 74 2.4 NW 39 57 21 31 1012.2 1012.3 0.2
01/04:00am 13.9 7.0 8.7 71 2.6 NW 35 48 19 26 1012.5 1012.6 0.2
01/03:30am 12.8 6.6 6.2 64 3.1 NNW 28 39 15 21 1012.6 1012.7 0.2
01/03:00am 11.4 5.6 6.1 70 2.5 N 26 33 14 18 1012.8 1012.9 0.2
01/02:30am 11.3 5.4 6.0 70 2.5 N 26 33 14 18 1013.1 1013.2 0.2
01/02:00am 10.2 6.4 6.0 75 1.9 N 15 20 8 11 1013.8 1013.9 0.2
01/01:30am 10.1 5.9 5.7 74 2.0 N 17 22 9 12 1014.2 1014.3 0.2
01/01:00am 9.9 5.3 5.5 74 2.0 NNE 19 26 10 14 1014.4 1014.6 0.2
01/12:30am 9.9 5.6 5.3 73 2.1 NNE 17 22 9 12 1015.0 1015.2 0.2
01/12:00am 9.4 5.4 5.0 74 2.0 NNE 15 20 8 11 1015.4 1015.6 0.2
 
Date/Time
EST
Temp
°C
App
Temp
°C
Dew
Point
Rel
Hum
%
Delta-T
°C
Wind Press
QNH
hPa
Press
MSL
hPa
Rain
since 9 am
mm
Dir
 
Spd
km/h
Gust
km/h
Spd
kts
Gust
kts
31/11:30pm 8.5 4.0 4.1 74 1.9 NNE 17 22 9 12 1016.2 1016.4 0.2
31/11:00pm 7.4 2.4 3.6 77 1.6 NE 19 20 10 11 1016.4 1016.6 0.2
31/10:30pm 6.2 2.1 2.5 77 1.5 NNE 13 17 7 9 1016.8 1017.0 0.2
31/10:00pm 6.6 3.3 2.3 74 1.8 NNE 9 11 5 6 1017.3 1017.5 0.2
31/09:30pm 6.2 2.9 2.3 76 1.6 NNE 9 11 5 6 1017.6 1017.8 0.2
31/09:00pm 5.4 1.9 1.5 76 1.5 NNE 9 11 5 6 1017.9 1018.1 0.2

Other Formats:

Comma delimited format used in spreadsheet applications
http://www.bom.gov.au/fwo/IDN60801/IDN60801.94843.axf

JavaScript Object Notation format (JSON) in row-major order
http://www.bom.gov.au/fwo/IDN60801/IDN60801.94843.json